createdAt,value
2019-06-10T00:02:26.552Z,4.93
2019-06-10T00:04:53.704Z,1.20
2019-06-10T00:07:21.135Z,1.10
2019-06-10T00:09:48.436Z,1.10
2019-06-10T00:12:15.954Z,4.87
2019-06-10T00:14:43.052Z,2.10
2019-06-10T00:17:10.980Z,1.20
2019-06-10T00:19:40.733Z,1.70
2019-06-10T00:22:08.527Z,1.07
2019-06-10T00:24:37.149Z,0.93
2019-06-10T00:27:05.912Z,1.70
2019-06-10T00:29:33.495Z,1.00
2019-06-10T00:32:03.273Z,1.43
2019-06-10T00:34:31.590Z,1.13
2019-06-10T00:37:01.528Z,1.20
2019-06-10T00:39:27.970Z,2.03
2019-06-10T00:41:55.214Z,1.27
2019-06-10T00:44:22.455Z,1.03
2019-06-10T00:46:51.614Z,1.57
2019-06-10T00:49:21.109Z,1.13
2019-06-10T00:51:47.810Z,1.60
2019-06-10T00:54:15.762Z,1.87
2019-06-10T00:56:43.548Z,1.40
2019-06-10T00:59:14.797Z,1.30
2019-06-10T01:01:41.589Z,1.33
2019-06-10T01:04:12.450Z,1.60
2019-06-10T01:06:38.267Z,1.20
2019-06-10T01:09:06.916Z,1.40
2019-06-10T01:11:34.113Z,1.47
2019-06-10T01:14:01.615Z,1.60
2019-06-10T01:16:29.042Z,1.23
2019-06-10T01:18:56.346Z,1.13
2019-06-10T01:21:23.439Z,1.57
2019-06-10T01:23:51.109Z,1.33
2019-06-10T01:26:21.346Z,1.53
2019-06-10T01:28:48.271Z,1.33
2019-06-10T01:31:19.227Z,2.20
2019-06-10T01:33:44.560Z,2.17
2019-06-10T01:36:13.312Z,1.30
2019-06-10T01:38:41.060Z,1.50
2019-06-10T01:41:10.674Z,4.87
2019-06-10T01:43:37.548Z,1.30
2019-06-10T01:46:04.659Z,2.93
2019-06-10T01:48:43.664Z,1.47
2019-06-10T01:51:01.752Z,1.97
2019-06-10T01:53:31.428Z,1.57
2019-06-10T01:56:00.853Z,1.20
2019-06-10T01:58:28.025Z,2.63
2019-06-10T02:01:23.312Z,1.97
2019-06-10T02:03:51.741Z,3.23
2019-06-10T02:06:22.142Z,1.20
2019-06-10T02:08:47.787Z,1.40
2019-06-10T02:11:17.299Z,1.30
2019-06-10T02:13:44.181Z,1.20
2019-06-10T02:16:14.098Z,1.60
2019-06-10T02:18:42.228Z,2.30
2019-06-10T02:21:14.295Z,1.70
2019-06-10T02:23:38.521Z,1.67
2019-06-10T02:26:05.701Z,1.90
2019-06-10T02:28:32.819Z,2.33
2019-06-10T02:31:03.315Z,2.40
2019-06-10T02:33:36.097Z,2.97
2019-06-10T02:36:03.445Z,1.70
2019-06-10T02:38:35.223Z,1.90
2019-06-10T02:40:57.589Z,1.70
2019-06-10T02:43:31.897Z,2.67
2019-06-10T02:45:55.792Z,3.00
2019-06-10T02:48:30.148Z,2.33
2019-06-10T02:51:04.143Z,3.00
2019-06-10T02:53:35.637Z,1.53
2019-06-10T02:56:03.960Z,3.00
2019-06-10T02:58:34.205Z,1.30
2019-06-10T03:00:59.704Z,4.30
2019-06-10T03:03:38.260Z,1.70
2019-06-10T03:05:56.237Z,2.30
2019-06-10T03:08:28.729Z,1.67
2019-06-10T03:10:54.737Z,2.20
2019-06-10T03:13:22.793Z,2.50
2019-06-10T03:15:57.739Z,3.70
2019-06-10T03:18:26.019Z,5.17
2019-06-10T03:20:53.374Z,2.13
2019-06-10T03:23:23.247Z,3.20
2019-06-10T03:25:58.706Z,1.87
2019-06-10T03:28:27.726Z,4.03
2019-06-10T03:30:58.928Z,2.20
2019-06-10T03:33:31.509Z,2.30
2019-06-10T03:35:54.569Z,1.47
2019-06-10T03:38:23.664Z,1.90
2019-06-10T03:40:52.470Z,2.03
2019-06-10T03:43:21.464Z,2.63
2019-06-10T03:45:49.723Z,1.80
2019-06-10T03:48:17.145Z,1.90
2019-06-10T03:50:45.546Z,2.00
2019-06-10T03:53:13.006Z,2.73
2019-06-10T03:55:42.245Z,1.63
2019-06-10T03:58:09.378Z,1.37
2019-06-10T04:00:37.195Z,2.00
2019-06-10T04:03:04.500Z,1.30
2019-06-10T04:05:33.169Z,1.80
2019-06-10T04:08:02.190Z,1.83
2019-06-10T04:10:29.701Z,1.80
2019-06-10T04:12:56.752Z,2.97
2019-06-10T04:15:26.559Z,2.13
2019-06-10T04:17:53.154Z,3.30
2019-06-10T04:20:24.664Z,1.73
2019-06-10T04:22:52.160Z,2.20
2019-06-10T04:25:19.828Z,3.50
2019-06-10T04:27:47.133Z,1.77
2019-06-10T04:30:16.523Z,1.97
2019-06-10T04:32:43.904Z,2.13
2019-06-10T04:35:12.687Z,1.80
2019-06-10T04:37:42.627Z,4.17
2019-06-10T04:40:09.373Z,4.57
2019-06-10T04:42:36.650Z,3.10
2019-06-10T04:45:04.069Z,5.07
2019-06-10T04:47:33.289Z,2.63
2019-06-10T04:50:02.934Z,3.00
2019-06-10T04:52:29.796Z,5.00
2019-06-10T04:54:58.340Z,5.07
2019-06-10T04:57:26.876Z,2.00
2019-06-10T04:59:54.435Z,5.80
2019-06-10T05:02:24.989Z,1.80
2019-06-10T05:04:53.209Z,2.57
2019-06-10T05:07:21.614Z,2.03
2019-06-10T05:09:49.699Z,2.63
2019-06-10T05:12:16.831Z,1.90
2019-06-10T05:14:43.983Z,3.07
2019-06-10T05:17:12.696Z,3.40
2019-06-10T05:19:42.699Z,4.40
2019-06-10T05:22:09.041Z,2.00
2019-06-10T05:24:36.192Z,3.80
2019-06-10T05:27:03.309Z,2.30
2019-06-10T05:29:31.212Z,4.37
2019-06-10T05:31:58.690Z,2.53
2019-06-10T05:34:27.224Z,3.73
2019-06-10T05:36:55.074Z,3.00
2019-06-10T05:39:24.296Z,2.73
2019-06-10T05:41:53.105Z,2.33
2019-06-10T05:44:23.612Z,3.83
2019-06-10T05:46:49.637Z,2.93
2019-06-10T05:49:17.199Z,2.63
2019-06-10T05:51:44.455Z,3.03
2019-06-10T05:54:12.804Z,4.20
2019-06-10T05:56:40.404Z,6.07
2019-06-10T05:59:07.756Z,7.23
2019-06-10T06:01:38.448Z,6.27
2019-06-10T06:04:04.598Z,4.27
2019-06-10T06:06:34.043Z,3.97
2019-06-10T06:09:02.253Z,5.47
2019-06-10T06:11:32.481Z,7.60
2019-06-10T06:13:59.082Z,4.10
2019-06-10T06:16:27.632Z,4.80
2019-06-10T06:18:55.382Z,4.90
2019-06-10T06:21:34.497Z,4.80
2019-06-10T06:23:59.103Z,6.73
2019-06-10T06:26:28.334Z,5.63
2019-06-10T06:28:55.519Z,7.07
2019-06-10T06:31:23.379Z,7.53
2019-06-10T06:33:52.743Z,8.00
2019-06-10T06:36:22.400Z,6.07
2019-06-10T06:38:49.082Z,3.77
2019-06-10T06:41:16.467Z,6.77
2019-06-10T06:43:45.410Z,4.03
2019-06-10T06:46:12.984Z,3.77
2019-06-10T06:48:43.455Z,6.40
2019-06-10T06:51:09.532Z,8.03
2019-06-10T06:53:46.286Z,9.63
2019-06-10T06:56:05.741Z,9.33
2019-06-10T06:58:35.224Z,13.07
2019-06-10T07:01:10.137Z,10.37
2019-06-10T07:03:35.291Z,10.60
2019-06-10T07:06:02.879Z,8.60
2019-06-10T07:08:33.316Z,8.40
2019-06-10T07:11:02.884Z,7.23
2019-06-10T07:13:35.423Z,7.43
2019-06-10T07:16:02.969Z,8.60
2019-06-10T07:18:33.737Z,7.10
2019-06-10T07:20:59.851Z,7.03
2019-06-10T07:23:27.408Z,8.77
2019-06-10T07:25:54.662Z,6.20
2019-06-10T07:28:23.025Z,5.70
2019-06-10T07:30:52.705Z,4.80
2019-06-10T07:33:19.719Z,10.93
2019-06-10T07:35:46.963Z,3.90
2019-06-10T07:38:14.200Z,3.03
2019-06-10T07:40:45.270Z,5.17
2019-06-10T07:43:12.764Z,5.23
2019-06-10T07:45:43.685Z,4.37
2019-06-10T07:48:09.325Z,2.87
2019-06-10T07:50:37.733Z,4.10
2019-06-10T07:53:05.235Z,3.80
2019-06-10T07:55:34.266Z,5.73
2019-06-10T07:58:02.574Z,3.50
2019-06-10T08:00:33.322Z,4.13
2019-06-10T08:03:02.287Z,3.17
2019-06-10T08:05:29.498Z,2.47
2019-06-10T08:07:56.770Z,3.80
2019-06-10T08:10:24.214Z,3.50
2019-06-10T08:12:52.434Z,4.27
2019-06-10T08:15:19.990Z,2.50
2019-06-10T08:17:48.263Z,2.83
2019-06-10T08:20:35.329Z,3.63
2019-06-10T08:23:02.794Z,2.70
2019-06-10T08:25:32.624Z,2.97
2019-06-10T08:27:59.001Z,3.63
2019-06-10T08:30:27.627Z,3.07
2019-06-10T08:32:56.578Z,8.80
2019-06-10T08:35:37.975Z,4.97
2019-06-10T08:37:53.264Z,4.53
2019-06-10T08:40:22.847Z,5.23
2019-06-10T08:42:49.574Z,5.40
2019-06-10T08:45:16.662Z,5.60
2019-06-10T08:47:46.903Z,2.73
2019-06-10T08:50:13.290Z,8.73
2019-06-10T08:52:53.920Z,3.03
2019-06-10T08:55:12.401Z,2.70
2019-06-10T08:57:42.434Z,3.60
2019-06-10T09:00:12.482Z,3.83
2019-06-10T09:02:39.178Z,3.90
2019-06-10T09:05:12.577Z,4.60
2019-06-10T09:07:41.471Z,3.63
2019-06-10T09:10:08.970Z,7.87
2019-06-10T09:12:36.829Z,8.67
2019-06-10T09:15:04.882Z,6.50
2019-06-10T09:17:33.729Z,3.60
2019-06-10T09:20:02.901Z,4.43
2019-06-10T09:22:32.574Z,3.53
2019-06-10T09:24:59.415Z,5.80
2019-06-10T09:27:27.174Z,8.47
2019-06-10T09:29:55.455Z,4.37
2019-06-10T09:32:23.489Z,4.33
2019-06-10T09:34:54.768Z,5.47
2019-06-10T09:37:20.118Z,4.70
2019-06-10T09:39:53.960Z,6.13
2019-06-10T09:42:16.680Z,6.40
2019-06-10T09:44:46.826Z,5.03
2019-06-10T09:47:14.631Z,4.43
2019-06-10T09:49:46.083Z,5.60
2019-06-10T09:52:13.524Z,4.47
2019-06-10T09:54:45.740Z,4.47
2019-06-10T09:57:12.566Z,9.53
2019-06-10T09:59:40.458Z,5.70
2019-06-10T10:02:08.940Z,4.67
2019-06-10T10:04:37.578Z,6.87
2019-06-10T10:07:04.874Z,6.47
2019-06-10T10:09:36.709Z,6.03
2019-06-10T10:12:03.022Z,7.70
2019-06-10T10:14:30.487Z,5.00
2019-06-10T10:17:00.201Z,4.33
2019-06-10T10:19:27.066Z,6.70
2019-06-10T10:21:58.234Z,12.93
2019-06-10T10:24:23.781Z,11.23
2019-06-10T10:26:55.933Z,11.97
2019-06-10T10:29:21.283Z,11.03
2019-06-10T10:31:50.723Z,9.53
2019-06-10T10:34:17.885Z,10.00
2019-06-10T10:36:47.065Z,6.57
2019-06-10T10:39:14.385Z,9.40
2019-06-10T10:41:43.203Z,5.40
2019-06-10T10:44:13.531Z,6.60
2019-06-10T10:46:40.299Z,5.67
2019-06-10T10:49:07.505Z,4.90
2019-06-10T10:51:34.792Z,6.77
2019-06-10T10:54:20.805Z,4.40
2019-06-10T10:56:33.924Z,6.17
2019-06-10T10:59:02.148Z,4.40
2019-06-10T11:01:29.717Z,6.87
2019-06-10T11:03:59.103Z,10.07
2019-06-10T11:06:26.914Z,5.77
2019-06-10T11:08:57.406Z,9.93
2019-06-10T11:11:25.612Z,9.33
2019-06-10T11:13:56.826Z,4.63
2019-06-10T11:16:23.371Z,8.57
2019-06-10T11:18:54.038Z,4.47
2019-06-10T11:21:19.609Z,4.60
2019-06-10T11:23:48.017Z,6.47
2019-06-10T11:26:15.339Z,5.63
2019-06-10T11:28:43.329Z,4.43
2019-06-10T11:31:13.421Z,5.17
2019-06-10T11:33:40.354Z,6.17
2019-06-10T11:36:07.736Z,5.37
2019-06-10T11:38:34.925Z,4.87
2019-06-10T11:41:02.197Z,6.13
2019-06-10T11:43:29.507Z,3.43
2019-06-10T11:46:02.989Z,3.27
2019-06-10T11:48:26.362Z,5.67
2019-06-10T11:50:56.525Z,4.50
2019-06-10T11:53:23.319Z,4.37
2019-06-10T11:55:51.760Z,3.57
2019-06-10T11:58:19.544Z,3.93
2019-06-10T12:00:57.057Z,4.37
2019-06-10T12:03:24.043Z,4.30
2019-06-10T12:06:05.416Z,5.30
2019-06-10T12:08:29.171Z,6.50
2019-06-10T12:11:00.091Z,4.70
2019-06-10T12:13:28.514Z,4.17
2019-06-10T12:18:28.314Z,4.30
2019-06-10T12:20:59.494Z,4.43
2019-06-10T12:23:24.727Z,4.35
2019-06-10T12:25:54.193Z,3.70
2019-06-10T12:28:21.052Z,5.13
2019-06-10T12:30:50.363Z,3.67
2019-06-10T12:33:21.634Z,3.80
2019-06-10T12:35:47.607Z,3.90
2019-06-10T12:38:15.182Z,4.33
2019-06-10T12:40:42.992Z,4.80
2019-06-10T12:43:12.469Z,4.27
2019-06-10T12:45:39.672Z,3.13
2019-06-10T12:48:07.338Z,2.97
2019-06-10T12:50:34.724Z,3.50
2019-06-10T12:53:05.463Z,3.90
2019-06-10T12:55:40.192Z,4.73
2019-06-10T12:58:03.002Z,3.30
2019-06-10T13:00:34.495Z,3.07
2019-06-10T13:03:05.273Z,5.03
2019-06-10T13:05:33.239Z,2.73
2019-06-10T13:08:03.850Z,3.00
2019-06-10T13:10:37.971Z,6.13
2019-06-10T13:13:07.384Z,3.23
2019-06-10T13:15:34.906Z,3.10
2019-06-10T13:18:06.140Z,2.77
2019-06-10T13:20:32.193Z,4.30
2019-06-10T13:23:20.274Z,3.70
2019-06-10T13:25:53.488Z,5.57
2019-06-10T13:28:09.359Z,3.97
2019-06-10T13:30:36.487Z,3.10
2019-06-10T13:33:08.156Z,2.60
2019-06-10T13:35:32.835Z,2.63
2019-06-10T13:38:01.592Z,4.87
2019-06-10T13:40:31.885Z,3.13
2019-06-10T13:42:59.700Z,2.63
2019-06-10T13:45:26.979Z,4.67
2019-06-10T13:47:55.083Z,3.20
2019-06-10T13:50:25.145Z,2.47
2019-06-10T13:52:52.157Z,2.77
2019-06-10T13:55:19.603Z,2.70
2019-06-10T13:57:46.702Z,2.67
2019-06-10T14:00:14.862Z,3.20
2019-06-10T14:02:43.222Z,2.43
2019-06-10T14:05:17.242Z,2.90
2019-06-10T14:07:40.558Z,3.90
2019-06-10T14:10:12.707Z,5.43
2019-06-10T14:12:37.478Z,7.27
2019-06-10T14:15:09.020Z,2.37
2019-06-10T14:17:34.383Z,3.00
2019-06-10T14:20:01.830Z,3.70
2019-06-10T14:22:29.686Z,2.73
2019-06-10T14:24:58.124Z,3.13
2019-06-10T14:27:25.657Z,4.07
2019-06-10T14:29:53.027Z,2.60
2019-06-10T14:32:22.389Z,3.50
2019-06-10T14:34:49.394Z,7.17
2019-06-10T14:37:32.132Z,2.80
2019-06-10T14:39:46.637Z,2.87
2019-06-10T14:42:15.061Z,3.33
2019-06-10T14:44:42.830Z,8.43
2019-06-10T14:47:13.544Z,3.73
2019-06-10T14:49:42.314Z,3.03
2019-06-10T14:52:09.054Z,3.33
2019-06-10T14:54:36.211Z,3.30
2019-06-10T14:57:03.356Z,3.80
2019-06-10T14:59:30.509Z,3.30
2019-06-10T15:01:57.510Z,4.40
2019-06-10T15:04:24.649Z,3.00
2019-06-10T15:06:53.709Z,4.07
2019-06-10T15:09:22.760Z,2.67
2019-06-10T15:11:52.040Z,3.20
2019-06-10T15:14:20.325Z,2.90
2019-06-10T15:16:48.028Z,2.77
2019-06-10T15:19:21.868Z,5.50
2019-06-10T15:21:44.678Z,3.20
2019-06-10T15:24:12.012Z,4.57
2019-06-10T15:26:39.208Z,3.57
2019-06-10T15:29:06.392Z,3.30
2019-06-10T15:31:33.726Z,4.07
2019-06-10T15:34:02.890Z,5.93
2019-06-10T15:36:32.709Z,7.20
2019-06-10T15:38:59.803Z,4.40
2019-06-10T15:41:27.002Z,1.80
2019-06-10T15:43:54.231Z,1.97
2019-06-10T15:46:21.641Z,1.87
2019-06-10T15:48:48.964Z,2.10
2019-06-10T15:51:19.167Z,2.00
2019-06-10T15:53:45.039Z,1.50
2019-06-10T15:56:23.781Z,3.80
2019-06-10T15:58:42.932Z,1.97
2019-06-10T16:01:14.476Z,2.47
2019-06-10T16:03:39.507Z,2.43
2019-06-10T16:06:06.587Z,2.77
2019-06-10T16:08:33.810Z,2.57
2019-06-10T16:11:03.057Z,3.37
2019-06-10T16:13:32.385Z,1.90
2019-06-10T16:15:59.629Z,1.90
2019-06-10T16:18:28.006Z,3.10
2019-06-10T16:20:55.742Z,2.43
2019-06-10T16:23:25.035Z,2.13
2019-06-10T16:25:53.437Z,2.10
2019-06-10T16:28:23.468Z,2.37
2019-06-10T16:30:53.313Z,2.33
2019-06-10T16:33:20.662Z,3.73
2019-06-10T16:35:48.637Z,2.13
2019-06-10T16:38:17.315Z,2.13
2019-06-10T16:40:44.377Z,3.67
2019-06-10T16:43:11.527Z,3.37
2019-06-10T16:45:38.746Z,3.77
2019-06-10T16:48:05.980Z,2.20
2019-06-10T16:50:34.077Z,2.80
2019-06-10T16:53:03.105Z,3.37
2019-06-10T16:55:32.664Z,3.47
2019-06-10T16:58:02.578Z,2.73
2019-06-10T17:00:30.747Z,3.13
2019-06-10T17:02:58.416Z,3.33
2019-06-10T17:05:27.505Z,2.90
2019-06-10T17:07:54.363Z,3.57
2019-06-10T17:10:21.887Z,3.40
2019-06-10T17:12:59.267Z,2.63
2019-06-10T17:15:27.308Z,2.27
2019-06-10T17:17:54.386Z,2.20
2019-06-10T17:20:23.594Z,1.90
2019-06-10T17:22:52.433Z,2.10
2019-06-10T17:25:19.458Z,1.77
2019-06-10T17:27:46.662Z,4.20
2019-06-10T17:30:14.487Z,1.80
2019-06-10T17:32:42.643Z,1.47
2019-06-10T17:35:12.514Z,1.63
2019-06-10T17:37:39.208Z,1.97
2019-06-10T17:40:06.850Z,1.73
2019-06-10T17:42:38.180Z,1.60
2019-06-10T17:45:04.579Z,1.57
2019-06-10T17:47:32.418Z,1.70
2019-06-10T17:50:02.429Z,1.53
2019-06-10T17:52:30.632Z,1.57
2019-06-10T17:54:59.107Z,1.90
2019-06-10T17:57:27.182Z,2.67
2019-06-10T17:59:55.435Z,1.77
2019-06-10T18:02:24.646Z,1.80
2019-06-10T18:04:52.831Z,3.27
2019-06-10T18:07:22.287Z,1.60
2019-06-10T18:09:49.152Z,3.10
2019-06-10T18:12:16.340Z,1.50
2019-06-10T18:14:43.363Z,1.50
2019-06-10T18:17:12.663Z,1.40
2019-06-10T18:19:39.187Z,1.53
2019-06-10T18:22:06.038Z,2.00
2019-06-10T18:24:33.085Z,2.00
2019-06-10T18:27:02.137Z,2.37
2019-06-10T18:29:29.223Z,2.97
2019-06-10T18:31:56.241Z,4.13
2019-06-10T18:34:23.100Z,1.70
2019-06-10T18:36:52.021Z,1.73
2019-06-10T18:39:18.894Z,1.60
2019-06-10T18:41:46.049Z,1.80
2019-06-10T18:44:22.034Z,1.70
2019-06-10T18:46:43.270Z,1.83
2019-06-10T18:49:13.354Z,2.27
2019-06-10T18:51:40.514Z,1.90
2019-06-10T18:54:07.429Z,1.70
2019-06-10T18:56:35.648Z,1.90
2019-06-10T18:59:15.830Z,1.80
2019-06-10T19:01:34.292Z,2.23
2019-06-10T19:04:02.744Z,1.70
2019-06-10T19:06:31.271Z,1.60
2019-06-10T19:08:58.540Z,1.93
2019-06-10T19:11:25.426Z,1.90
2019-06-10T19:13:52.923Z,1.73
2019-06-10T19:16:19.899Z,1.60
2019-06-10T19:18:46.841Z,2.10
2019-06-10T19:21:14.015Z,1.47
2019-06-10T19:23:43.519Z,2.23
2019-06-10T19:26:09.597Z,2.50
2019-06-10T19:28:38.742Z,2.40
2019-06-10T19:31:05.222Z,1.83
2019-06-10T19:33:35.836Z,2.80
2019-06-10T19:36:02.327Z,6.43
2019-06-10T19:38:31.984Z,4.57
2019-06-10T19:40:58.242Z,1.90
2019-06-10T19:43:25.081Z,2.43
2019-06-10T19:45:52.993Z,2.33
2019-06-10T19:48:20.054Z,2.27
2019-06-10T19:50:50.410Z,2.77
2019-06-10T19:53:16.187Z,2.87
2019-06-10T19:55:44.377Z,2.73
2019-06-10T19:58:13.410Z,2.73
2019-06-10T20:00:41.521Z,2.93
2019-06-10T20:03:09.606Z,3.00
2019-06-10T20:05:37.993Z,3.90
2019-06-10T20:08:05.024Z,3.87
2019-06-10T20:10:32.435Z,4.13
2019-06-10T20:12:59.625Z,5.97
2019-06-10T20:15:26.730Z,3.73
2019-06-10T20:17:53.707Z,3.20
2019-06-10T20:20:22.614Z,3.20
2019-06-10T20:22:49.602Z,3.60
2019-06-10T20:25:16.674Z,4.70
2019-06-10T20:27:45.430Z,6.67
2019-06-10T20:30:23.767Z,3.50
2019-06-10T20:32:46.493Z,6.90
2019-06-10T20:35:13.213Z,3.63
2019-06-10T20:37:42.243Z,6.50
2019-06-10T20:40:09.716Z,4.23
2019-06-10T20:42:36.694Z,5.17
2019-06-10T20:45:04.981Z,3.67
2019-06-10T20:47:33.339Z,4.33
2019-06-10T20:50:02.676Z,3.57
2019-06-10T20:52:29.337Z,3.57
2019-06-10T20:54:56.207Z,3.87
2019-06-10T20:57:23.080Z,4.77
2019-06-10T20:59:49.946Z,5.47
2019-06-10T21:02:17.025Z,3.67
2019-06-10T21:04:45.560Z,3.53
2019-06-10T21:07:13.454Z,3.87
2019-06-10T21:09:44.136Z,4.50
2019-06-10T21:12:12.931Z,3.97
2019-06-10T21:14:40.423Z,4.10
2019-06-10T21:17:08.574Z,4.33
2019-06-10T21:19:35.428Z,3.70
2019-06-10T21:22:02.818Z,4.07
2019-06-10T21:24:32.212Z,4.20
2019-06-10T21:26:59.109Z,4.43
2019-06-10T21:29:26.077Z,4.33
2019-06-10T21:31:54.784Z,4.60
2019-06-10T21:34:22.405Z,3.83
2019-06-10T21:36:49.812Z,4.23
2019-06-10T21:39:16.747Z,4.37
2019-06-10T21:41:45.180Z,4.47
2019-06-10T21:44:13.179Z,5.07
2019-06-10T21:46:40.141Z,4.60
2019-06-10T21:49:07.306Z,4.47
2019-06-10T21:51:34.741Z,5.33
2019-06-10T21:54:02.965Z,5.00
2019-06-10T21:56:32.615Z,5.13
2019-06-10T21:58:58.858Z,5.17
2019-06-10T22:01:25.822Z,5.33
2019-06-10T22:03:59.974Z,5.87
2019-06-10T22:06:22.828Z,4.70
2019-06-10T22:08:50.102Z,4.97
2019-06-10T22:11:17.063Z,7.07
2019-06-10T22:13:44.112Z,5.03
2019-06-10T22:16:11.114Z,5.03
2019-06-10T22:18:37.961Z,5.03
2019-06-10T22:21:05.922Z,6.67
2019-06-10T22:23:33.186Z,5.57
2019-06-10T22:26:02.586Z,5.33
2019-06-10T22:28:29.550Z,5.07
2019-06-10T22:31:14.659Z,4.53
2019-06-10T22:33:25.169Z,5.70
2019-06-10T22:35:54.570Z,5.13
2019-06-10T22:38:22.167Z,4.90
2019-06-10T22:40:49.473Z,4.40
2019-06-10T22:43:16.384Z,4.87
2019-06-10T22:45:43.230Z,4.40
2019-06-10T22:48:12.112Z,4.70
2019-06-10T22:50:39.349Z,4.43
2019-06-10T22:53:07.194Z,4.50
2019-06-10T22:55:34.046Z,4.37
2019-06-10T22:58:03.166Z,3.93
2019-06-10T23:00:29.924Z,4.23
2019-06-10T23:02:58.003Z,4.77
2019-06-10T23:05:25.535Z,5.17
2019-06-10T23:07:53.259Z,4.83
2019-06-10T23:10:22.916Z,4.67
2019-06-10T23:12:51.269Z,8.67
2019-06-10T23:15:19.338Z,3.90
2019-06-10T23:17:46.684Z,4.03
2019-06-10T23:20:13.718Z,4.27
2019-06-10T23:22:41.566Z,4.83
2019-06-10T23:25:08.811Z,3.43
2019-06-10T23:27:35.652Z,6.23
2019-06-10T23:30:11.249Z,4.07
2019-06-10T23:32:32.794Z,3.50
2019-06-10T23:35:01.149Z,2.97
2019-06-10T23:37:28.678Z,3.40
2019-06-10T23:39:56.824Z,2.63
2019-06-10T23:42:23.955Z,3.27
2019-06-10T23:44:51.102Z,2.90
2019-06-10T23:47:18.238Z,2.60
2019-06-10T23:49:45.330Z,2.43
2019-06-10T23:52:12.782Z,2.77
2019-06-10T23:54:40.711Z,2.87
2019-06-10T23:57:07.990Z,2.50
2019-06-10T23:59:35.113Z,2.87
